sensor_id;sensor_type;location;lat;lon;timestamp;P1;durP1;ratioP1;P2;durP2;ratioP2
2406;SDS011;37709;53.480;9.688;2024-02-21T00:00:55;29.23;;;18.90;;
2406;SDS011;37709;53.480;9.688;2024-02-21T00:03:22;26.83;;;18.20;;
2406;SDS011;37709;53.480;9.688;2024-02-21T00:05:50;28.70;;;18.67;;
2406;SDS011;37709;53.480;9.688;2024-02-21T00:08:18;20.73;;;16.67;;
2406;SDS011;37709;53.480;9.688;2024-02-21T00:10:46;26.80;;;18.23;;
2406;SDS011;37709;53.480;9.688;2024-02-21T00:13:13;27.53;;;17.60;;
2406;SDS011;37709;53.480;9.688;2024-02-21T00:15:40;23.27;;;17.73;;
2406;SDS011;37709;53.480;9.688;2024-02-21T00:18:09;25.60;;;18.40;;
2406;SDS011;37709;53.480;9.688;2024-02-21T00:20:38;30.50;;;20.23;;
2406;SDS011;37709;53.480;9.688;2024-02-21T00:23:05;24.57;;;17.60;;
2406;SDS011;37709;53.480;9.688;2024-02-21T00:25:33;26.73;;;17.00;;
2406;SDS011;37709;53.480;9.688;2024-02-21T00:28:01;27.23;;;18.27;;
2406;SDS011;37709;53.480;9.688;2024-02-21T00:30:30;29.33;;;18.20;;
2406;SDS011;37709;53.480;9.688;2024-02-21T00:32:57;28.40;;;20.43;;
2406;SDS011;37709;53.480;9.688;2024-02-21T00:35:25;26.13;;;18.60;;
2406;SDS011;37709;53.480;9.688;2024-02-21T00:37:52;27.23;;;20.93;;
2406;SDS011;37709;53.480;9.688;2024-02-21T00:40:20;24.77;;;18.27;;
2406;SDS011;37709;53.480;9.688;2024-02-21T00:42:49;26.47;;;17.43;;
2406;SDS011;37709;53.480;9.688;2024-02-21T00:45:16;28.90;;;20.53;;
2406;SDS011;37709;53.480;9.688;2024-02-21T00:47:43;21.50;;;18.70;;
2406;SDS011;37709;53.480;9.688;2024-02-21T00:50:11;27.47;;;17.80;;
2406;SDS011;37709;53.480;9.688;2024-02-21T00:52:38;23.93;;;19.37;;
2406;SDS011;37709;53.480;9.688;2024-02-21T00:55:06;28.43;;;17.30;;
2406;SDS011;37709;53.480;9.688;2024-02-21T00:57:33;29.93;;;19.87;;
2406;SDS011;37709;53.480;9.688;2024-02-21T01:00:01;28.53;;;19.53;;
2406;SDS011;37709;53.480;9.688;2024-02-21T01:02:30;24.70;;;18.03;;
2406;SDS011;37709;53.480;9.688;2024-02-21T01:05:01;26.10;;;18.73;;
2406;SDS011;37709;53.480;9.688;2024-02-21T01:07:30;27.60;;;19.13;;
2406;SDS011;37709;53.480;9.688;2024-02-21T01:09:57;24.40;;;18.20;;
2406;SDS011;37709;53.480;9.688;2024-02-21T01:12:24;32.90;;;21.60;;
2406;SDS011;37709;53.480;9.688;2024-02-21T01:14:52;28.43;;;17.07;;
2406;SDS011;37709;53.480;9.688;2024-02-21T01:17:20;32.10;;;21.17;;
2406;SDS011;37709;53.480;9.688;2024-02-21T01:19:47;28.33;;;19.47;;
2406;SDS011;37709;53.480;9.688;2024-02-21T01:22:15;29.10;;;22.33;;
2406;SDS011;37709;53.480;9.688;2024-02-21T01:24:43;32.77;;;22.30;;
2406;SDS011;37709;53.480;9.688;2024-02-21T01:27:11;26.50;;;19.83;;
2406;SDS011;37709;53.480;9.688;2024-02-21T01:29:38;31.00;;;20.77;;
2406;SDS011;37709;53.480;9.688;2024-02-21T01:32:05;34.57;;;23.67;;
2406;SDS011;37709;53.480;9.688;2024-02-21T01:34:33;30.10;;;22.30;;
2406;SDS011;37709;53.480;9.688;2024-02-21T01:37:00;39.87;;;24.43;;
2406;SDS011;37709;53.480;9.688;2024-02-21T01:39:32;31.33;;;22.67;;
2406;SDS011;37709;53.480;9.688;2024-02-21T01:41:59;31.40;;;22.10;;
2406;SDS011;37709;53.480;9.688;2024-02-21T01:44:27;39.27;;;24.33;;
2406;SDS011;37709;53.480;9.688;2024-02-21T01:46:56;42.63;;;27.63;;
2406;SDS011;37709;53.480;9.688;2024-02-21T01:49:24;34.40;;;23.97;;
2406;SDS011;37709;53.480;9.688;2024-02-21T01:51:51;26.83;;;18.70;;
2406;SDS011;37709;53.480;9.688;2024-02-21T01:54:20;39.57;;;25.77;;
2406;SDS011;37709;53.480;9.688;2024-02-21T01:56:48;40.17;;;25.60;;
2406;SDS011;37709;53.480;9.688;2024-02-21T01:59:17;39.80;;;25.80;;
2406;SDS011;37709;53.480;9.688;2024-02-21T02:01:46;36.87;;;25.20;;
2406;SDS011;37709;53.480;9.688;2024-02-21T02:04:15;40.63;;;24.60;;
2406;SDS011;37709;53.480;9.688;2024-02-21T02:06:42;43.27;;;30.00;;
2406;SDS011;37709;53.480;9.688;2024-02-21T02:09:11;42.67;;;26.63;;
2406;SDS011;37709;53.480;9.688;2024-02-21T02:11:38;46.40;;;26.77;;
2406;SDS011;37709;53.480;9.688;2024-02-21T02:14:06;41.97;;;26.53;;
2406;SDS011;37709;53.480;9.688;2024-02-21T02:16:33;40.33;;;27.90;;
2406;SDS011;37709;53.480;9.688;2024-02-21T02:19:01;37.17;;;25.90;;
2406;SDS011;37709;53.480;9.688;2024-02-21T02:21:31;41.63;;;27.80;;
2406;SDS011;37709;53.480;9.688;2024-02-21T02:24:04;40.37;;;26.40;;
2406;SDS011;37709;53.480;9.688;2024-02-21T02:26:32;39.30;;;26.33;;
2406;SDS011;37709;53.480;9.688;2024-02-21T02:29:01;41.40;;;25.00;;
2406;SDS011;37709;53.480;9.688;2024-02-21T02:31:29;46.40;;;24.47;;
2406;SDS011;37709;53.480;9.688;2024-02-21T02:33:56;36.70;;;25.50;;
2406;SDS011;37709;53.480;9.688;2024-02-21T02:39:16;37.60;;;26.63;;
2406;SDS011;37709;53.480;9.688;2024-02-21T02:41:45;42.97;;;25.30;;
2406;SDS011;37709;53.480;9.688;2024-02-21T02:44:13;34.37;;;23.83;;
2406;SDS011;37709;53.480;9.688;2024-02-21T02:46:40;33.30;;;25.30;;
2406;SDS011;37709;53.480;9.688;2024-02-21T02:49:08;40.27;;;25.77;;
2406;SDS011;37709;53.480;9.688;2024-02-21T02:51:41;37.60;;;24.10;;
2406;SDS011;37709;53.480;9.688;2024-02-21T02:54:10;35.00;;;25.27;;
2406;SDS011;37709;53.480;9.688;2024-02-21T02:56:39;36.33;;;23.77;;
2406;SDS011;37709;53.480;9.688;2024-02-21T02:59:06;35.87;;;25.23;;
2406;SDS011;37709;53.480;9.688;2024-02-21T03:01:34;31.83;;;21.00;;
2406;SDS011;37709;53.480;9.688;2024-02-21T03:04:02;35.93;;;23.73;;
2406;SDS011;37709;53.480;9.688;2024-02-21T03:06:29;37.07;;;24.37;;
2406;SDS011;37709;53.480;9.688;2024-02-21T03:08:57;34.70;;;24.10;;
2406;SDS011;37709;53.480;9.688;2024-02-21T03:11:24;31.90;;;22.90;;
2406;SDS011;37709;53.480;9.688;2024-02-21T03:13:57;30.50;;;21.97;;
2406;SDS011;37709;53.480;9.688;2024-02-21T03:16:25;28.87;;;21.83;;
2406;SDS011;37709;53.480;9.688;2024-02-21T03:18:52;27.87;;;19.33;;
2406;SDS011;37709;53.480;9.688;2024-02-21T03:21:20;32.60;;;22.30;;
2406;SDS011;37709;53.480;9.688;2024-02-21T03:23:47;28.53;;;21.20;;
2406;SDS011;37709;53.480;9.688;2024-02-21T03:26:15;28.53;;;20.20;;
2406;SDS011;37709;53.480;9.688;2024-02-21T03:28:45;25.97;;;16.80;;
2406;SDS011;37709;53.480;9.688;2024-02-21T03:31:14;29.93;;;21.47;;
2406;SDS011;37709;53.480;9.688;2024-02-21T03:33:42;31.00;;;20.43;;
2406;SDS011;37709;53.480;9.688;2024-02-21T03:36:13;26.77;;;19.50;;
2406;SDS011;37709;53.480;9.688;2024-02-21T03:38:42;27.43;;;19.90;;
2406;SDS011;37709;53.480;9.688;2024-02-21T03:41:09;25.63;;;18.03;;
2406;SDS011;37709;53.480;9.688;2024-02-21T03:43:37;31.20;;;20.47;;
2406;SDS011;37709;53.480;9.688;2024-02-21T03:46:06;29.40;;;18.87;;
2406;SDS011;37709;53.480;9.688;2024-02-21T03:48:34;29.20;;;20.10;;
2406;SDS011;37709;53.480;9.688;2024-02-21T03:51:03;23.43;;;18.40;;
2406;SDS011;37709;53.480;9.688;2024-02-21T03:53:31;31.10;;;21.57;;
2406;SDS011;37709;53.480;9.688;2024-02-21T03:56:02;21.63;;;17.30;;
2406;SDS011;37709;53.480;9.688;2024-02-21T03:58:31;29.30;;;19.63;;
2406;SDS011;37709;53.480;9.688;2024-02-21T04:01:02;32.77;;;20.97;;
2406;SDS011;37709;53.480;9.688;2024-02-21T04:03:30;32.30;;;21.17;;
2406;SDS011;37709;53.480;9.688;2024-02-21T04:05:58;33.43;;;21.50;;
2406;SDS011;37709;53.480;9.688;2024-02-21T04:08:25;29.33;;;21.37;;
2406;SDS011;37709;53.480;9.688;2024-02-21T04:10:53;26.23;;;18.83;;
2406;SDS011;37709;53.480;9.688;2024-02-21T04:13:20;33.27;;;21.33;;
2406;SDS011;37709;53.480;9.688;2024-02-21T04:15:49;35.07;;;21.50;;
2406;SDS011;37709;53.480;9.688;2024-02-21T04:18:16;35.80;;;20.87;;
2406;SDS011;37709;53.480;9.688;2024-02-21T04:20:44;25.17;;;19.00;;
2406;SDS011;37709;53.480;9.688;2024-02-21T04:23:11;30.20;;;18.00;;
2406;SDS011;37709;53.480;9.688;2024-02-21T04:25:38;23.73;;;16.90;;
2406;SDS011;37709;53.480;9.688;2024-02-21T04:28:05;24.57;;;18.20;;
2406;SDS011;37709;53.480;9.688;2024-02-21T04:30:34;30.63;;;21.57;;
2406;SDS011;37709;53.480;9.688;2024-02-21T04:33:01;27.50;;;20.17;;
2406;SDS011;37709;53.480;9.688;2024-02-21T04:35:29;30.83;;;20.30;;
2406;SDS011;37709;53.480;9.688;2024-02-21T04:37:56;46.80;;;24.23;;
2406;SDS011;37709;53.480;9.688;2024-02-21T04:40:23;33.43;;;19.90;;
2406;SDS011;37709;53.480;9.688;2024-02-21T04:42:51;27.40;;;19.20;;
2406;SDS011;37709;53.480;9.688;2024-02-21T04:45:18;28.77;;;17.53;;
2406;SDS011;37709;53.480;9.688;2024-02-21T04:47:46;23.40;;;12.47;;
2406;SDS011;37709;53.480;9.688;2024-02-21T04:50:13;36.37;;;21.40;;
2406;SDS011;37709;53.480;9.688;2024-02-21T04:52:42;32.80;;;21.60;;
2406;SDS011;37709;53.480;9.688;2024-02-21T04:55:10;35.40;;;20.50;;
2406;SDS011;37709;53.480;9.688;2024-02-21T04:57:37;32.57;;;17.47;;
2406;SDS011;37709;53.480;9.688;2024-02-21T05:00:05;31.67;;;18.53;;
2406;SDS011;37709;53.480;9.688;2024-02-21T05:02:34;27.90;;;17.00;;
2406;SDS011;37709;53.480;9.688;2024-02-21T05:05:01;22.47;;;14.20;;
2406;SDS011;37709;53.480;9.688;2024-02-21T05:07:29;34.70;;;18.57;;
2406;SDS011;37709;53.480;9.688;2024-02-21T05:09:56;27.70;;;16.60;;
2406;SDS011;37709;53.480;9.688;2024-02-21T05:12:25;25.00;;;16.10;;
2406;SDS011;37709;53.480;9.688;2024-02-21T05:14:53;27.67;;;16.07;;
2406;SDS011;37709;53.480;9.688;2024-02-21T05:17:21;25.20;;;14.80;;
2406;SDS011;37709;53.480;9.688;2024-02-21T05:19:48;27.83;;;15.20;;
2406;SDS011;37709;53.480;9.688;2024-02-21T05:22:15;31.20;;;16.60;;
2406;SDS011;37709;53.480;9.688;2024-02-21T05:24:47;29.40;;;15.10;;
2406;SDS011;37709;53.480;9.688;2024-02-21T05:27:14;27.77;;;15.77;;
2406;SDS011;37709;53.480;9.688;2024-02-21T05:29:42;24.83;;;15.80;;
2406;SDS011;37709;53.480;9.688;2024-02-21T05:32:09;22.87;;;14.13;;
2406;SDS011;37709;53.480;9.688;2024-02-21T05:34:37;18.40;;;12.60;;
2406;SDS011;37709;53.480;9.688;2024-02-21T05:37:08;19.43;;;12.70;;
2406;SDS011;37709;53.480;9.688;2024-02-21T05:39:35;27.57;;;12.57;;
2406;SDS011;37709;53.480;9.688;2024-02-21T05:42:02;17.93;;;12.00;;
2406;SDS011;37709;53.480;9.688;2024-02-21T05:44:30;16.47;;;11.00;;
2406;SDS011;37709;53.480;9.688;2024-02-21T05:47:03;27.27;;;11.60;;
2406;SDS011;37709;53.480;9.688;2024-02-21T05:49:31;16.20;;;10.90;;
2406;SDS011;37709;53.480;9.688;2024-02-21T05:51:59;19.40;;;11.40;;
2406;SDS011;37709;53.480;9.688;2024-02-21T05:54:30;25.30;;;14.17;;
2406;SDS011;37709;53.480;9.688;2024-02-21T05:56:57;19.87;;;11.87;;
2406;SDS011;37709;53.480;9.688;2024-02-21T05:59:26;18.67;;;12.60;;
2406;SDS011;37709;53.480;9.688;2024-02-21T06:01:55;19.83;;;11.87;;
2406;SDS011;37709;53.480;9.688;2024-02-21T06:04:24;16.13;;;9.80;;
2406;SDS011;37709;53.480;9.688;2024-02-21T06:06:52;23.43;;;12.77;;
2406;SDS011;37709;53.480;9.688;2024-02-21T06:09:19;21.73;;;12.00;;
2406;SDS011;37709;53.480;9.688;2024-02-21T06:11:51;15.40;;;10.23;;
2406;SDS011;37709;53.480;9.688;2024-02-21T06:14:20;25.33;;;14.23;;
2406;SDS011;37709;53.480;9.688;2024-02-21T06:16:50;17.50;;;9.77;;
2406;SDS011;37709;53.480;9.688;2024-02-21T06:19:17;14.03;;;8.97;;
2406;SDS011;37709;53.480;9.688;2024-02-21T06:21:47;22.93;;;11.63;;
2406;SDS011;37709;53.480;9.688;2024-02-21T06:24:15;15.10;;;9.23;;
2406;SDS011;37709;53.480;9.688;2024-02-21T06:26:43;23.53;;;11.60;;
2406;SDS011;37709;53.480;9.688;2024-02-21T06:29:11;18.80;;;11.07;;
2406;SDS011;37709;53.480;9.688;2024-02-21T06:31:42;15.60;;;10.27;;
2406;SDS011;37709;53.480;9.688;2024-02-21T06:34:10;16.00;;;9.83;;
2406;SDS011;37709;53.480;9.688;2024-02-21T06:36:37;11.20;;;6.90;;
2406;SDS011;37709;53.480;9.688;2024-02-21T06:39:06;17.73;;;10.90;;
2406;SDS011;37709;53.480;9.688;2024-02-21T06:41:35;20.63;;;11.23;;
2406;SDS011;37709;53.480;9.688;2024-02-21T06:44:02;12.40;;;8.83;;
2406;SDS011;37709;53.480;9.688;2024-02-21T06:46:31;16.00;;;10.50;;
2406;SDS011;37709;53.480;9.688;2024-02-21T06:49:02;20.20;;;10.27;;
2406;SDS011;37709;53.480;9.688;2024-02-21T06:51:35;14.07;;;9.40;;
2406;SDS011;37709;53.480;9.688;2024-02-21T06:54:04;15.77;;;9.93;;
2406;SDS011;37709;53.480;9.688;2024-02-21T06:56:32;20.60;;;10.20;;
2406;SDS011;37709;53.480;9.688;2024-02-21T06:58:59;14.10;;;10.63;;
2406;SDS011;37709;53.480;9.688;2024-02-21T07:01:28;15.50;;;9.07;;
2406;SDS011;37709;53.480;9.688;2024-02-21T07:03:56;21.10;;;10.60;;
2406;SDS011;37709;53.480;9.688;2024-02-21T07:09:17;16.13;;;9.33;;
2406;SDS011;37709;53.480;9.688;2024-02-21T07:11:46;13.97;;;9.03;;
2406;SDS011;37709;53.480;9.688;2024-02-21T07:14:14;23.00;;;10.67;;
2406;SDS011;37709;53.480;9.688;2024-02-21T07:16:45;18.23;;;10.73;;
2406;SDS011;37709;53.480;9.688;2024-02-21T07:19:13;14.03;;;8.83;;
2406;SDS011;37709;53.480;9.688;2024-02-21T07:21:43;15.30;;;9.37;;
2406;SDS011;37709;53.480;9.688;2024-02-21T07:24:11;22.47;;;10.20;;
2406;SDS011;37709;53.480;9.688;2024-02-21T07:26:42;12.83;;;9.17;;
2406;SDS011;37709;53.480;9.688;2024-02-21T07:29:11;15.67;;;9.37;;
2406;SDS011;37709;53.480;9.688;2024-02-21T07:31:42;17.10;;;10.90;;
2406;SDS011;37709;53.480;9.688;2024-02-21T07:34:10;20.40;;;11.70;;
2406;SDS011;37709;53.480;9.688;2024-02-21T07:36:38;20.10;;;11.13;;
2406;SDS011;37709;53.480;9.688;2024-02-21T07:39:06;17.73;;;11.87;;
2406;SDS011;37709;53.480;9.688;2024-02-21T07:41:37;14.17;;;11.57;;
2406;SDS011;37709;53.480;9.688;2024-02-21T07:44:05;20.67;;;10.00;;
2406;SDS011;37709;53.480;9.688;2024-02-21T07:46:34;26.50;;;12.10;;
2406;SDS011;37709;53.480;9.688;2024-02-21T07:49:02;21.83;;;10.97;;
2406;SDS011;37709;53.480;9.688;2024-02-21T07:51:29;13.07;;;9.70;;
2406;SDS011;37709;53.480;9.688;2024-02-21T07:53:57;14.93;;;10.13;;
2406;SDS011;37709;53.480;9.688;2024-02-21T07:56:27;12.53;;;9.33;;
2406;SDS011;37709;53.480;9.688;2024-02-21T07:58:54;12.60;;;9.17;;
2406;SDS011;37709;53.480;9.688;2024-02-21T08:04:16;14.30;;;9.90;;
2406;SDS011;37709;53.480;9.688;2024-02-21T08:06:43;15.33;;;10.17;;
2406;SDS011;37709;53.480;9.688;2024-02-21T08:12:06;11.33;;;8.13;;
2406;SDS011;37709;53.480;9.688;2024-02-21T08:14:34;11.53;;;8.53;;
2406;SDS011;37709;53.480;9.688;2024-02-21T08:17:01;16.93;;;9.87;;
2406;SDS011;37709;53.480;9.688;2024-02-21T08:19:28;11.83;;;7.20;;
2406;SDS011;37709;53.480;9.688;2024-02-21T08:21:57;13.90;;;7.73;;
2406;SDS011;37709;53.480;9.688;2024-02-21T08:24:25;10.90;;;7.10;;
2406;SDS011;37709;53.480;9.688;2024-02-21T08:26:52;14.97;;;8.00;;
2406;SDS011;37709;53.480;9.688;2024-02-21T08:29:21;11.20;;;7.20;;
2406;SDS011;37709;53.480;9.688;2024-02-21T08:31:50;10.07;;;7.17;;
2406;SDS011;37709;53.480;9.688;2024-02-21T08:34:18;9.13;;;6.27;;
2406;SDS011;37709;53.480;9.688;2024-02-21T08:36:46;8.30;;;6.50;;
2406;SDS011;37709;53.480;9.688;2024-02-21T08:39:13;9.30;;;7.50;;
2406;SDS011;37709;53.480;9.688;2024-02-21T08:41:44;10.53;;;7.97;;
2406;SDS011;37709;53.480;9.688;2024-02-21T08:44:23;12.63;;;7.57;;
2406;SDS011;37709;53.480;9.688;2024-02-21T08:46:53;8.03;;;5.93;;
2406;SDS011;37709;53.480;9.688;2024-02-21T08:49:21;9.83;;;6.83;;
2406;SDS011;37709;53.480;9.688;2024-02-21T08:51:49;10.17;;;6.33;;
2406;SDS011;37709;53.480;9.688;2024-02-21T08:54:16;6.87;;;5.20;;
2406;SDS011;37709;53.480;9.688;2024-02-21T08:56:44;9.10;;;6.80;;
2406;SDS011;37709;53.480;9.688;2024-02-21T08:59:11;10.10;;;7.00;;
2406;SDS011;37709;53.480;9.688;2024-02-21T09:01:39;10.50;;;7.30;;
2406;SDS011;37709;53.480;9.688;2024-02-21T09:04:07;16.17;;;8.90;;
2406;SDS011;37709;53.480;9.688;2024-02-21T09:06:35;15.47;;;8.33;;
2406;SDS011;37709;53.480;9.688;2024-02-21T09:09:06;14.03;;;8.50;;
2406;SDS011;37709;53.480;9.688;2024-02-21T09:11:35;14.47;;;9.43;;
2406;SDS011;37709;53.480;9.688;2024-02-21T09:14:03;20.77;;;9.67;;
2406;SDS011;37709;53.480;9.688;2024-02-21T09:16:33;15.73;;;10.50;;
2406;SDS011;37709;53.480;9.688;2024-02-21T09:19:01;13.20;;;9.40;;
2406;SDS011;37709;53.480;9.688;2024-02-21T09:21:28;21.47;;;11.40;;
2406;SDS011;37709;53.480;9.688;2024-02-21T09:23:58;26.07;;;12.20;;
2406;SDS011;37709;53.480;9.688;2024-02-21T09:26:26;11.87;;;9.03;;
2406;SDS011;37709;53.480;9.688;2024-02-21T09:28:54;14.87;;;10.60;;
2406;SDS011;37709;53.480;9.688;2024-02-21T09:31:22;17.27;;;10.40;;
2406;SDS011;37709;53.480;9.688;2024-02-21T09:33:50;19.43;;;12.33;;
2406;SDS011;37709;53.480;9.688;2024-02-21T09:36:18;16.53;;;12.07;;
2406;SDS011;37709;53.480;9.688;2024-02-21T09:38:47;30.10;;;13.60;;
2406;SDS011;37709;53.480;9.688;2024-02-21T09:41:15;20.47;;;12.37;;
2406;SDS011;37709;53.480;9.688;2024-02-21T09:43:50;19.33;;;14.70;;
2406;SDS011;37709;53.480;9.688;2024-02-21T09:46:37;32.27;;;17.57;;
2406;SDS011;37709;53.480;9.688;2024-02-21T09:49:31;27.53;;;17.37;;
2406;SDS011;37709;53.480;9.688;2024-02-21T09:52:01;35.70;;;19.43;;
2406;SDS011;37709;53.480;9.688;2024-02-21T09:54:30;31.73;;;19.23;;
2406;SDS011;37709;53.480;9.688;2024-02-21T09:56:59;44.93;;;22.10;;
2406;SDS011;37709;53.480;9.688;2024-02-21T09:59:27;46.03;;;22.63;;
2406;SDS011;37709;53.480;9.688;2024-02-21T10:01:56;34.13;;;22.83;;
2406;SDS011;37709;53.480;9.688;2024-02-21T10:04:26;39.27;;;23.17;;
2406;SDS011;37709;53.480;9.688;2024-02-21T10:06:55;45.10;;;24.87;;
2406;SDS011;37709;53.480;9.688;2024-02-21T10:09:23;37.00;;;20.50;;
2406;SDS011;37709;53.480;9.688;2024-02-21T10:11:56;44.90;;;24.20;;
2406;SDS011;37709;53.480;9.688;2024-02-21T10:14:39;47.40;;;26.00;;
2406;SDS011;37709;53.480;9.688;2024-02-21T10:17:07;34.57;;;21.73;;
2406;SDS011;37709;53.480;9.688;2024-02-21T10:19:38;37.13;;;21.60;;
2406;SDS011;37709;53.480;9.688;2024-02-21T10:22:08;36.30;;;21.53;;
2406;SDS011;37709;53.480;9.688;2024-02-21T10:24:36;36.73;;;18.50;;
2406;SDS011;37709;53.480;9.688;2024-02-21T10:27:09;32.53;;;20.13;;
2406;SDS011;37709;53.480;9.688;2024-02-21T10:29:40;33.50;;;19.90;;
2406;SDS011;37709;53.480;9.688;2024-02-21T10:32:13;27.00;;;17.70;;
2406;SDS011;37709;53.480;9.688;2024-02-21T10:34:41;28.97;;;18.20;;
2406;SDS011;37709;53.480;9.688;2024-02-21T10:37:10;31.30;;;18.37;;
2406;SDS011;37709;53.480;9.688;2024-02-21T10:39:38;31.60;;;17.80;;
2406;SDS011;37709;53.480;9.688;2024-02-21T10:42:10;21.97;;;15.40;;
2406;SDS011;37709;53.480;9.688;2024-02-21T10:44:40;24.03;;;16.93;;
2406;SDS011;37709;53.480;9.688;2024-02-21T10:47:09;21.17;;;14.70;;
2406;SDS011;37709;53.480;9.688;2024-02-21T10:49:40;19.80;;;14.50;;
2406;SDS011;37709;53.480;9.688;2024-02-21T10:54:59;15.20;;;12.50;;
2406;SDS011;37709;53.480;9.688;2024-02-21T10:57:33;15.83;;;11.60;;
2406;SDS011;37709;53.480;9.688;2024-02-21T11:00:03;15.43;;;12.20;;
2406;SDS011;37709;53.480;9.688;2024-02-21T11:02:34;19.43;;;12.73;;
2406;SDS011;37709;53.480;9.688;2024-02-21T11:05:03;12.90;;;10.90;;
2406;SDS011;37709;53.480;9.688;2024-02-21T11:07:35;19.93;;;12.33;;
2406;SDS011;37709;53.480;9.688;2024-02-21T11:10:04;19.00;;;11.00;;
2406;SDS011;37709;53.480;9.688;2024-02-21T11:12:34;14.23;;;11.37;;
2406;SDS011;37709;53.480;9.688;2024-02-21T11:15:05;16.03;;;12.67;;
2406;SDS011;37709;53.480;9.688;2024-02-21T11:17:33;17.13;;;11.83;;
2406;SDS011;37709;53.480;9.688;2024-02-21T11:20:14;17.37;;;11.60;;
2406;SDS011;37709;53.480;9.688;2024-02-21T11:22:42;14.77;;;10.10;;
2406;SDS011;37709;53.480;9.688;2024-02-21T11:25:10;13.90;;;11.80;;
2406;SDS011;37709;53.480;9.688;2024-02-21T11:30:37;12.80;;;9.93;;
2406;SDS011;37709;53.480;9.688;2024-02-21T11:33:06;14.63;;;10.60;;
2406;SDS011;37709;53.480;9.688;2024-02-21T11:35:34;14.87;;;9.67;;
2406;SDS011;37709;53.480;9.688;2024-02-21T11:38:12;15.53;;;9.57;;
2406;SDS011;37709;53.480;9.688;2024-02-21T11:40:47;18.47;;;10.67;;
2406;SDS011;37709;53.480;9.688;2024-02-21T11:43:15;12.97;;;10.80;;
2406;SDS011;37709;53.480;9.688;2024-02-21T11:45:45;12.30;;;9.40;;
2406;SDS011;37709;53.480;9.688;2024-02-21T11:48:13;14.30;;;10.10;;
2406;SDS011;37709;53.480;9.688;2024-02-21T11:50:52;13.83;;;9.20;;
2406;SDS011;37709;53.480;9.688;2024-02-21T11:53:24;14.33;;;10.80;;
2406;SDS011;37709;53.480;9.688;2024-02-21T11:55:58;13.90;;;10.37;;
2406;SDS011;37709;53.480;9.688;2024-02-21T11:58:26;12.10;;;10.13;;
2406;SDS011;37709;53.480;9.688;2024-02-21T12:00:54;18.10;;;11.90;;
2406;SDS011;37709;53.480;9.688;2024-02-21T12:03:21;11.90;;;9.80;;
2406;SDS011;37709;53.480;9.688;2024-02-21T12:05:49;14.20;;;10.97;;
2406;SDS011;37709;53.480;9.688;2024-02-21T12:08:16;13.47;;;10.50;;
2406;SDS011;37709;53.480;9.688;2024-02-21T12:10:45;13.60;;;9.63;;
2406;SDS011;37709;53.480;9.688;2024-02-21T12:13:22;18.90;;;11.80;;
2406;SDS011;37709;53.480;9.688;2024-02-21T12:15:51;12.57;;;9.77;;
2406;SDS011;37709;53.480;9.688;2024-02-21T12:18:19;18.43;;;11.20;;
2406;SDS011;37709;53.480;9.688;2024-02-21T12:20:48;20.70;;;13.03;;
2406;SDS011;37709;53.480;9.688;2024-02-21T12:23:17;15.90;;;11.20;;
2406;SDS011;37709;53.480;9.688;2024-02-21T12:25:46;16.63;;;11.83;;
2406;SDS011;37709;53.480;9.688;2024-02-21T12:28:14;16.57;;;12.10;;
2406;SDS011;37709;53.480;9.688;2024-02-21T12:30:44;17.20;;;11.93;;
2406;SDS011;37709;53.480;9.688;2024-02-21T12:33:12;14.63;;;11.73;;
2406;SDS011;37709;53.480;9.688;2024-02-21T12:35:41;14.47;;;11.60;;
2406;SDS011;37709;53.480;9.688;2024-02-21T12:38:09;12.67;;;10.93;;
2406;SDS011;37709;53.480;9.688;2024-02-21T12:40:38;13.80;;;10.63;;
2406;SDS011;37709;53.480;9.688;2024-02-21T12:43:06;17.30;;;12.20;;
2406;SDS011;37709;53.480;9.688;2024-02-21T12:45:34;15.77;;;11.73;;
2406;SDS011;37709;53.480;9.688;2024-02-21T12:48:03;12.20;;;10.90;;
2406;SDS011;37709;53.480;9.688;2024-02-21T12:50:32;19.13;;;11.17;;
2406;SDS011;37709;53.480;9.688;2024-02-21T12:53:03;12.83;;;10.67;;
2406;SDS011;37709;53.480;9.688;2024-02-21T12:55:42;15.17;;;10.73;;
2406;SDS011;37709;53.480;9.688;2024-02-21T12:58:10;15.00;;;11.20;;
2406;SDS011;37709;53.480;9.688;2024-02-21T13:00:39;14.90;;;10.40;;
2406;SDS011;37709;53.480;9.688;2024-02-21T13:03:06;12.30;;;11.00;;
2406;SDS011;37709;53.480;9.688;2024-02-21T13:05:35;16.10;;;10.70;;
2406;SDS011;37709;53.480;9.688;2024-02-21T13:08:03;14.17;;;10.53;;
2406;SDS011;37709;53.480;9.688;2024-02-21T13:10:33;13.13;;;10.13;;
2406;SDS011;37709;53.480;9.688;2024-02-21T13:13:03;12.97;;;9.40;;
2406;SDS011;37709;53.480;9.688;2024-02-21T13:15:31;10.30;;;9.30;;
2406;SDS011;37709;53.480;9.688;2024-02-21T13:17:59;12.17;;;10.03;;
2406;SDS011;37709;53.480;9.688;2024-02-21T13:20:26;12.67;;;9.70;;
2406;SDS011;37709;53.480;9.688;2024-02-21T13:22:57;13.60;;;9.60;;
2406;SDS011;37709;53.480;9.688;2024-02-21T13:25:24;13.77;;;11.00;;
2406;SDS011;37709;53.480;9.688;2024-02-21T13:27:51;13.87;;;10.13;;
2406;SDS011;37709;53.480;9.688;2024-02-21T13:30:19;11.27;;;9.53;;
2406;SDS011;37709;53.480;9.688;2024-02-21T13:32:46;12.37;;;8.80;;
2406;SDS011;37709;53.480;9.688;2024-02-21T13:35:14;9.50;;;8.60;;
2406;SDS011;37709;53.480;9.688;2024-02-21T13:37:42;11.40;;;8.63;;
2406;SDS011;37709;53.480;9.688;2024-02-21T13:40:10;13.90;;;9.83;;
2406;SDS011;37709;53.480;9.688;2024-02-21T13:42:37;12.40;;;9.43;;
2406;SDS011;37709;53.480;9.688;2024-02-21T13:45:06;11.50;;;7.90;;
2406;SDS011;37709;53.480;9.688;2024-02-21T13:47:34;8.80;;;7.30;;
2406;SDS011;37709;53.480;9.688;2024-02-21T13:50:04;11.00;;;8.20;;
2406;SDS011;37709;53.480;9.688;2024-02-21T13:52:40;9.33;;;7.60;;
2406;SDS011;37709;53.480;9.688;2024-02-21T13:58:01;12.23;;;7.53;;
2406;SDS011;37709;53.480;9.688;2024-02-21T14:00:30;9.47;;;7.43;;
2406;SDS011;37709;53.480;9.688;2024-02-21T14:03:01;9.43;;;7.73;;
2406;SDS011;37709;53.480;9.688;2024-02-21T14:05:30;8.87;;;6.83;;
2406;SDS011;37709;53.480;9.688;2024-02-21T14:07:58;10.40;;;6.50;;
2406;SDS011;37709;53.480;9.688;2024-02-21T14:10:30;10.00;;;8.20;;
2406;SDS011;37709;53.480;9.688;2024-02-21T14:12:57;8.60;;;6.90;;
2406;SDS011;37709;53.480;9.688;2024-02-21T14:15:25;12.47;;;7.00;;
2406;SDS011;37709;53.480;9.688;2024-02-21T14:17:53;6.43;;;5.83;;
2406;SDS011;37709;53.480;9.688;2024-02-21T14:20:22;9.23;;;7.50;;
2406;SDS011;37709;53.480;9.688;2024-02-21T14:22:52;10.70;;;6.63;;
2406;SDS011;37709;53.480;9.688;2024-02-21T14:25:19;11.67;;;6.50;;
2406;SDS011;37709;53.480;9.688;2024-02-21T14:27:47;6.20;;;5.27;;
2406;SDS011;37709;53.480;9.688;2024-02-21T14:30:14;7.70;;;6.30;;
2406;SDS011;37709;53.480;9.688;2024-02-21T14:32:43;8.50;;;6.37;;
2406;SDS011;37709;53.480;9.688;2024-02-21T14:35:11;8.67;;;6.40;;
2406;SDS011;37709;53.480;9.688;2024-02-21T14:37:39;12.33;;;6.63;;
2406;SDS011;37709;53.480;9.688;2024-02-21T14:40:07;8.93;;;6.40;;
2406;SDS011;37709;53.480;9.688;2024-02-21T14:42:35;7.73;;;6.93;;
2406;SDS011;37709;53.480;9.688;2024-02-21T14:45:03;6.90;;;5.43;;
2406;SDS011;37709;53.480;9.688;2024-02-21T14:47:32;10.93;;;6.10;;
2406;SDS011;37709;53.480;9.688;2024-02-21T14:50:01;7.17;;;5.77;;
2406;SDS011;37709;53.480;9.688;2024-02-21T14:52:31;9.30;;;6.17;;
2406;SDS011;37709;53.480;9.688;2024-02-21T14:55:00;9.00;;;6.30;;
2406;SDS011;37709;53.480;9.688;2024-02-21T14:57:29;8.93;;;5.63;;
2406;SDS011;37709;53.480;9.688;2024-02-21T14:59:58;7.90;;;5.37;;
2406;SDS011;37709;53.480;9.688;2024-02-21T15:02:27;6.37;;;5.20;;
2406;SDS011;37709;53.480;9.688;2024-02-21T15:04:55;9.00;;;5.50;;
2406;SDS011;37709;53.480;9.688;2024-02-21T15:07:24;7.10;;;5.30;;